Time;durP1;ratioP1;P1;durP2;ratioP2;P2;SDS_P1;SDS_P2;PMS_P1;PMS_P2;Temp;Humidity;BMP_temperature;BMP_pressure;BME280_temperature;BME280_humidity;BME280_pressure;Samples;Min_cycle;Max_cycle;Signal;HPM_P1;HPM_P2
2022/04/21 00:02:15;;;;;;;4.07;2.50;;;;;;;19.40;32.19;101062.94;5037209;28;20104;-69
2022/04/21 00:04:40;;;;;;;4.55;2.20;;;;;;;19.38;32.18;101058.69;5037347;28;20483;-69
2022/04/21 00:07:05;;;;;;;2.92;1.88;;;;;;;19.36;32.21;101063.47;5037242;28;20037;-68
2022/04/21 00:09:31;;;;;;;7.50;2.35;;;;;;;19.34;31.61;101062.81;5037683;28;20159;-69
2022/04/21 00:11:56;;;;;;;4.68;2.50;;;;;;;19.31;32.17;101065.91;5037177;28;20025;-69
2022/04/21 00:14:22;;;;;;;5.72;2.88;;;;;;;19.28;32.15;101063.53;5037318;28;20029;-69
2022/04/21 00:16:47;;;;;;;2.72;1.92;;;;;;;19.27;32.35;101065.41;5037283;28;20118;-69
2022/04/21 00:19:12;;;;;;;3.90;2.38;;;;;;;19.23;32.76;101060.53;5037007;28;20048;-69
2022/04/21 00:24:21;;;;;;;6.18;2.72;;;;;;;19.17;32.08;101062.94;5037031;28;20533;-70
2022/04/21 00:26:47;;;;;;;3.60;1.90;;;;;;;19.15;33.00;101053.28;5036416;28;20077;-69
2022/04/21 00:29:13;;;;;;;2.28;2.08;;;;;;;19.13;32.60;101058.00;5036246;28;20029;-69
2022/04/21 00:31:39;;;;;;;5.75;2.53;;;;;;;19.11;32.73;101044.63;5036846;28;20558;-68
2022/04/21 00:34:04;;;;;;;2.47;2.05;;;;;;;19.10;32.25;101037.50;5036677;28;20053;-69
2022/04/21 00:36:30;;;;;;;3.03;2.10;;;;;;;19.09;32.92;101045.84;5036855;28;20028;-69
2022/04/21 00:38:55;;;;;;;3.03;2.28;;;;;;;19.04;33.21;101040.06;5019025;28;20037;-69
2022/04/21 00:41:20;;;;;;;2.72;2.30;;;;;;;19.00;32.54;101036.03;5036434;28;20029;-68
2022/04/21 00:43:46;;;;;;;4.35;2.40;;;;;;;18.95;32.58;101041.16;5036721;28;20025;-69
2022/04/21 00:46:17;;;;;;;3.13;2.00;;;;;;;18.89;33.36;101041.88;5036689;28;20026;-69
2022/04/21 00:48:44;;;;;;;4.53;2.50;;;;;;;18.83;32.11;101039.88;5018964;28;20025;-70
2022/04/21 00:51:09;;;;;;;3.28;2.50;;;;;;;18.77;33.45;101041.41;5036563;28;20081;-69
2022/04/21 00:53:35;;;;;;;3.58;2.10;;;;;;;18.70;32.92;101036.88;5017989;28;20057;-69
2022/04/21 00:56:01;;;;;;;4.57;2.30;;;;;;;18.63;33.18;101036.72;5019155;28;20029;-69
2022/04/21 00:58:27;;;;;;;5.15;1.90;;;;;;;18.57;32.79;101037.44;5018632;28;20121;-69
2022/04/21 01:00:53;;;;;;;3.30;2.28;;;;;;;18.53;32.94;101034.25;5018417;28;20053;-69
2022/04/21 01:03:19;;;;;;;2.67;2.10;;;;;;;18.49;33.69;101030.19;5019020;28;20021;-69
2022/04/21 01:05:46;;;;;;;4.70;2.45;;;;;;;18.47;33.10;101039.47;5018797;28;20060;-70
2022/04/21 01:08:12;;;;;;;2.97;2.00;;;;;;;18.43;34.28;101035.41;5018104;28;20076;-69
2022/04/21 01:10:38;;;;;;;3.17;2.30;;;;;;;18.41;33.06;101032.88;5036096;28;20025;-69
2022/04/21 01:13:06;;;;;;;3.88;2.17;;;;;;;18.41;33.88;101029.31;5018833;28;20035;-69
2022/04/21 01:15:32;;;;;;;6.70;2.17;;;;;;;18.40;33.70;101035.75;5037235;28;20497;-69
2022/04/21 01:17:57;;;;;;;4.97;2.08;;;;;;;18.39;33.81;101024.09;5018215;28;20026;-69
2022/04/21 01:20:23;;;;;;;4.60;2.15;;;;;;;18.40;33.21;101033.03;5036306;28;20030;-69
2022/04/21 01:22:49;;;;;;;3.33;2.53;;;;;;;18.40;34.03;101035.75;5036061;28;20561;-68
2022/04/21 01:25:14;;;;;;;3.45;2.38;;;;;;;18.40;33.13;101035.75;5018448;28;20117;-69
2022/04/21 01:27:40;;;;;;;3.28;2.08;;;;;;;18.38;33.46;101045.94;5035860;28;20049;-69
2022/04/21 01:30:10;;;;;;;6.10;2.47;;;;;;;18.35;34.11;101040.88;5035937;28;20026;-70
2022/04/21 01:32:36;;;;;;;3.42;2.78;;;;;;;18.29;34.59;101036.13;5018433;28;20017;-68
2022/04/21 01:35:06;;;;;;;2.67;1.88;;;;;;;18.23;33.15;101039.56;5035696;28;20025;-69
2022/04/21 01:43:01;;;;;;;3.38;2.20;;;;;;;18.08;33.75;101039.41;5035602;28;20032;-69
2022/04/21 01:45:26;;;;;;;3.80;2.15;;;;;;;18.01;33.60;101038.41;5035655;28;20021;-69
2022/04/21 01:47:52;;;;;;;3.25;2.22;;;;;;;17.92;33.66;101040.28;5035528;28;20033;-70
2022/04/21 01:50:17;;;;;;;5.70;2.58;;;;;;;17.85;33.52;101033.88;5035638;28;20025;-70
2022/04/21 01:52:42;;;;;;;2.88;2.05;;;;;;;17.78;34.35;101035.53;5017702;28;20022;-70
2022/04/21 01:55:08;;;;;;;3.70;2.15;;;;;;;17.70;34.85;101043.69;5035092;28;20021;-69
2022/04/21 01:57:34;;;;;;;3.85;2.33;;;;;;;17.64;34.36;101036.25;5035908;28;20034;-69
2022/04/21 01:59:59;;;;;;;4.30;2.10;;;;;;;17.62;35.30;101046.41;5035584;28;20033;-68
2022/04/21 02:02:25;;;;;;;4.60;2.40;;;;;;;17.62;34.95;101040.97;5034945;28;20032;-69
2022/04/21 02:04:50;;;;;;;3.97;2.78;;;;;;;17.64;33.86;101040.81;5017208;28;20029;-68
2022/04/21 02:07:16;;;;;;;3.03;2.20;;;;;;;17.65;33.77;101027.09;5035475;28;20100;-69
2022/04/21 02:09:42;;;;;;;2.63;2.08;;;;;;;17.65;34.89;101035.22;5035513;28;20100;-70
2022/04/21 02:12:08;;;;;;;2.55;1.92;;;;;;;17.69;35.00;101042.00;5034723;28;20063;-69
2022/04/21 02:14:33;;;;;;;2.83;2.10;;;;;;;17.70;34.08;101032.03;5035241;28;20025;-68
2022/04/21 02:16:59;;;;;;;3.55;2.28;;;;;;;17.70;34.57;101026.59;5034788;28;20037;-69
2022/04/21 02:19:24;;;;;;;4.85;2.92;;;;;;;17.68;34.42;101026.75;5017442;28;20447;-69
2022/04/21 02:21:50;;;;;;;4.63;2.30;;;;;;;17.65;35.16;101035.22;5035285;28;20041;-69
2022/04/21 02:24:15;;;;;;;5.70;2.47;;;;;;;17.62;34.70;101030.16;5034943;28;20025;-70
2022/04/21 02:26:40;;;;;;;3.90;2.50;;;;;;;17.58;34.37;101030.66;5013772;28;20053;-69
2022/04/21 02:29:06;;;;;;;5.30;3.35;;;;;;;17.52;35.26;101029.44;5014877;28;20022;-70
2022/04/21 02:31:31;;;;;;;8.20;2.80;;;;;;;17.45;35.45;101028.41;5014904;28;20030;-69
2022/04/21 02:33:56;;;;;;;2.70;2.20;;;;;;;17.37;34.51;101031.13;5014841;28;20018;-69
2022/04/21 02:36:22;;;;;;;5.20;2.45;;;;;;;17.30;35.67;101030.13;5013623;28;20076;-69
2022/04/21 02:38:47;;;;;;;5.18;3.90;;;;;;;17.24;34.52;101026.22;5014998;28;20088;-69
2022/04/21 02:41:12;;;;;;;4.63;2.58;;;;;;;17.19;35.88;101022.31;5015341;28;20028;-69
2022/04/21 02:43:38;;;;;;;4.53;2.30;;;;;;;17.13;34.56;101034.66;5014610;28;20393;-69
2022/04/21 02:46:03;;;;;;;3.38;2.33;;;;;;;17.10;34.40;101024.16;5014944;28;20033;-69
2022/04/21 02:48:29;;;;;;;3.60;2.55;;;;;;;17.07;35.32;101024.50;5013445;28;20029;-69
2022/04/21 02:50:54;;;;;;;6.18;2.85;;;;;;;17.03;35.67;101022.28;5014788;28;20062;-69
2022/04/21 02:57:19;;;;;;;5.18;2.75;;;;;;;17.00;34.86;101020.72;5014957;28;20076;-69
2022/04/21 02:58:49;;;;;;;3.80;3.22;;;;;;;16.88;35.99;101022.94;5013595;28;20024;-69
2022/04/21 03:01:15;;;;;;;6.65;3.72;;;;;;;16.84;34.47;101029.69;5013431;28;20021;-69
2022/04/21 03:03:40;;;;;;;5.50;2.83;;;;;;;16.79;36.10;101023.91;5013308;28;20038;-69
2022/04/21 03:06:05;;;;;;;5.75;2.42;;;;;;;16.73;34.76;101024.56;5014347;28;20022;-68
2022/04/21 03:08:31;;;;;;;4.72;2.90;;;;;;;16.67;35.61;101022.50;5013963;28;20060;-70
2022/04/21 03:10:56;;;;;;;2.95;2.40;;;;;;;16.62;35.02;101024.88;5014408;28;20108;-68
2022/04/21 03:13:22;;;;;;;11.40;3.05;;;;;;;16.57;36.38;101031.78;5014129;28;20026;-69
2022/04/21 03:15:47;;;;;;;8.52;2.90;;;;;;;16.50;34.72;101031.53;5013788;28;20115;-70
2022/04/21 03:18:12;;;;;;;4.75;2.47;;;;;;;16.46;35.60;101032.03;5014452;28;20018;-68
2022/04/21 03:26:06;;;;;;;6.10;2.75;;;;;;;16.30;36.62;101030.09;5019021;28;20052;-69
2022/04/21 03:28:31;;;;;;;3.42;2.25;;;;;;;16.26;35.92;101034.13;5016155;28;20390;-68
2022/04/21 03:30:57;;;;;;;3.78;2.40;;;;;;;16.21;36.38;101040.03;5033926;28;20055;-69
2022/04/21 03:33:24;;;;;;;3.97;3.05;;;;;;;16.14;36.55;101032.69;5016181;28;20026;-69
2022/04/21 03:35:50;;;;;;;3.17;2.40;;;;;;;16.08;35.21;101030.66;5016795;28;20085;-69
2022/04/21 03:38:15;;;;;;;4.65;2.03;;;;;;;16.02;35.77;101031.28;5033929;28;20465;-69
2022/04/21 03:40:40;;;;;;;5.10;2.90;;;;;;;15.98;35.71;101040.72;5033782;28;20025;-69
2022/04/21 03:43:08;;;;;;;3.58;2.55;;;;;;;15.92;36.33;101042.19;5033434;28;20101;-69
2022/04/21 03:45:33;;;;;;;5.38;2.97;;;;;;;15.89;35.84;101037.09;5034214;28;20455;-69
2022/04/21 03:48:01;;;;;;;3.80;2.28;;;;;;;15.84;36.76;101044.84;5033843;28;20028;-69
2022/04/21 03:50:26;;;;;;;6.10;2.35;;;;;;;15.83;35.91;101039.59;5033747;28;20120;-69
2022/04/21 03:52:52;;;;;;;4.18;2.63;;;;;;;15.80;36.79;101037.22;5033833;28;20072;-69
2022/04/21 03:55:17;;;;;;;3.40;2.78;;;;;;;15.78;37.12;101044.59;5033488;28;20099;-69
2022/04/21 03:57:42;;;;;;;5.13;2.88;;;;;;;15.77;35.93;101048.34;5033912;28;20364;-69
2022/04/21 04:00:10;;;;;;;4.75;2.53;;;;;;;15.76;37.20;101035.81;5033436;28;20025;-70
2022/04/21 04:02:35;;;;;;;6.35;2.83;;;;;;;15.73;36.93;101040.53;5033725;28;20017;-69
2022/04/21 04:05:02;;;;;;;4.10;2.45;;;;;;;15.72;36.06;101035.28;5033864;28;20076;-69
2022/04/21 04:12:55;;;;;;;3.38;2.72;;;;;;;15.64;37.18;101046.03;5033650;28;20102;-69
2022/04/21 04:15:21;;;;;;;4.68;2.78;;;;;;;15.62;36.31;101057.00;5033665;28;20475;-69
2022/04/21 04:17:47;;;;;;;7.60;2.92;;;;;;;15.58;36.11;101052.03;5033625;28;20021;-69
2022/04/21 04:20:12;;;;;;;4.47;2.72;;;;;;;15.58;36.96;101049.34;5033038;28;20080;-69
2022/04/21 04:22:40;;;;;;;3.58;2.53;;;;;;;15.54;36.98;101051.53;5033556;28;20549;-69
2022/04/21 04:25:08;;;;;;;4.72;3.10;;;;;;;15.52;36.81;101053.50;5016385;28;20398;-69
2022/04/21 04:27:35;;;;;;;3.13;2.83;;;;;;;15.53;37.60;101057.06;5015912;28;20053;-68
2022/04/21 04:30:01;;;;;;;3.00;2.60;;;;;;;15.50;37.43;101058.22;5037051;28;20101;-69
2022/04/21 04:32:26;;;;;;;4.63;2.85;;;;;;;15.50;37.09;101058.22;5036975;28;20060;-68
2022/04/21 04:34:52;;;;;;;6.15;2.72;;;;;;;15.49;36.56;101058.41;5036910;28;20029;-69
2022/04/21 04:37:17;;;;;;;5.03;2.50;;;;;;;15.46;36.92;101059.56;5036700;28;20026;-69
2022/04/21 04:39:43;;;;;;;3.25;2.47;;;;;;;15.41;36.85;101052.91;5036874;28;20021;-69
2022/04/21 04:42:17;;;;;;;6.18;2.28;;;;;;;15.38;37.76;101056.72;5036997;28;20143;-69
2022/04/21 04:44:45;;;;;;;4.40;2.70;;;;;;;15.35;37.35;101056.22;5036860;28;20075;-70
2022/04/21 04:47:11;;;;;;;3.03;2.22;;;;;;;15.32;36.79;101060.06;5036215;28;20479;-69
2022/04/21 04:49:36;;;;;;;3.78;2.90;;;;;;;15.30;37.37;101061.22;5036164;28;20035;-68
2022/04/21 04:52:02;;;;;;;4.82;2.72;;;;;;;15.30;37.29;101053.13;5018714;28;20026;-70
2022/04/21 04:54:29;;;;;;;5.25;2.92;;;;;;;15.30;37.72;101048.56;5036463;28;20109;-69
2022/04/21 04:56:55;;;;;;;4.78;2.90;;;;;;;15.34;37.36;101057.19;5036682;28;20037;-69
2022/04/21 04:59:21;;;;;;;6.13;2.88;;;;;;;15.38;37.06;101059.44;5036380;28;20104;-68
2022/04/21 05:01:46;;;;;;;4.07;2.72;;;;;;;15.43;37.12;101051.75;5036615;28;20067;-68
2022/04/21 05:04:14;;;;;;;4.20;3.15;;;;;;;15.50;38.09;101051.97;5036328;28;20475;-69
2022/04/21 05:07:05;;;;;;;5.10;3.47;;;;;;;15.60;38.20;101058.16;5036569;28;20025;-69
2022/04/21 05:09:30;;;;;;;4.57;2.55;;;;;;;15.69;36.94;101047.25;5030970;28;20033;-69
2022/04/21 05:11:57;;;;;;;5.65;3.30;;;;;;;15.82;37.00;101056.81;5036115;28;20025;-69
2022/04/21 05:14:23;;;;;;;3.17;2.88;;;;;;;15.93;37.80;101054.72;5036492;28;20107;-69
2022/04/21 05:16:49;;;;;;;5.32;2.95;;;;;;;16.05;37.82;101052.59;5018240;28;20029;-70
2022/04/21 05:19:17;;;;;;;8.18;3.00;;;;;;;16.17;37.04;101057.56;5035678;28;20021;-69
2022/04/21 05:21:43;;;;;;;4.88;2.83;;;;;;;16.30;38.11;101054.44;5036088;28;20029;-69
2022/04/21 05:24:10;;;;;;;5.70;2.50;;;;;;;16.41;37.10;101043.34;5017836;28;20029;-69
2022/04/21 05:26:37;;;;;;;3.92;2.67;;;;;;;16.56;37.31;101052.56;5018061;28;20054;-69
2022/04/21 05:30:55;;;;;;;4.30;2.65;;;;;;;16.70;37.32;101046.53;5035839;28;20447;-68
2022/04/21 05:31:55;;;;;;;3.88;3.20;;;;;;;16.88;38.03;101041.03;5035349;28;20033;-68
2022/04/21 05:34:21;;;;;;;9.45;2.95;;;;;;;17.04;37.05;101040.19;5035712;28;20055;-69
2022/04/21 05:36:46;;;;;;;5.05;2.83;;;;;;;17.20;36.28;101034.81;5035504;28;20398;-68
2022/04/21 05:39:12;;;;;;;4.15;3.10;;;;;;;17.36;36.37;101046.50;5051464;28;20094;-67
2022/04/21 05:41:37;;;;;;;6.97;2.58;;;;;;;17.52;36.92;101045.69;5055616;28;20375;-69
2022/04/21 05:44:04;;;;;;;5.85;3.03;;;;;;;17.70;37.16;101042.88;5055832;28;20025;-69
2022/04/21 05:46:29;;;;;;;3.55;2.58;;;;;;;17.85;37.54;101039.28;5055173;28;20025;-68
2022/04/21 05:48:55;;;;;;;4.25;2.60;;;;;;;18.04;35.83;101046.19;5055383;28;20359;-68
2022/04/21 05:51:21;;;;;;;3.72;2.60;;;;;;;18.20;36.13;101034.50;5055382;28;20040;-68
2022/04/21 05:53:50;;;;;;;5.32;3.03;;;;;;;18.39;36.15;101026.81;5055113;28;20021;-68
2022/04/21 05:56:16;;;;;;;3.65;3.35;;;;;;;18.57;37.24;101032.84;5054544;28;20032;-70
2022/04/21 05:58:41;;;;;;;2.65;2.45;;;;;;;18.78;36.03;101028.69;5055009;28;20474;-70
2022/04/21 06:01:10;;;;;;;3.03;2.38;;;;;;;18.98;36.47;101030.78;5055274;28;20029;-70
2022/04/21 06:03:37;;;;;;;5.40;2.70;;;;;;;19.19;35.68;101022.00;5055126;28;20394;-69
2022/04/21 06:06:03;;;;;;;3.03;2.72;;;;;;;19.42;36.17;101022.03;5055249;28;20036;-69
2022/04/21 06:08:29;;;;;;;13.80;2.97;;;;;;;19.63;35.30;101024.91;5037015;28;20475;-69
2022/04/21 06:10:56;;;;;;;3.75;2.75;;;;;;;19.81;35.09;101014.56;5054736;28;20036;-69
2022/04/21 06:13:25;;;;;;;3.85;1.90;;;;;;;19.99;35.85;101030.53;5054806;28;20025;-69
2022/04/21 06:15:50;;;;;;;4.80;2.58;;;;;;;20.20;35.45;101017.06;5036903;28;20386;-69
2022/04/21 06:18:16;;;;;;;4.60;2.47;;;;;;;20.40;35.45;101017.38;5054246;28;20087;-69
2022/04/21 06:20:41;;;;;;;5.43;2.53;;;;;;;20.58;35.11;101017.81;5036996;28;20390;-70
2022/04/21 06:23:07;;;;;;;5.32;2.55;;;;;;;20.78;34.92;101016.19;5036776;28;20021;-69
2022/04/21 06:25:32;;;;;;;4.57;2.20;;;;;;;20.97;35.05;101010.13;5054474;28;20108;-68
2022/04/21 06:27:57;;;;;;;4.57;2.55;;;;;;;21.15;34.54;101013.31;5054517;28;20479;-69
2022/04/21 06:30:23;;;;;;;3.75;2.90;;;;;;;21.30;34.88;101014.09;5054646;28;20025;-69
2022/04/21 06:32:49;;;;;;;2.88;2.53;;;;;;;21.47;34.47;101012.78;5054591;28;20032;-69
2022/04/21 06:35:15;;;;;;;7.93;2.97;;;;;;;21.53;34.28;101007.59;5054519;28;20036;-69
2022/04/21 06:37:40;;;;;;;3.90;2.85;;;;;;;21.70;34.08;101003.53;5054346;28;20482;-69
2022/04/21 06:40:06;;;;;;;3.72;2.60;;;;;;;21.86;33.65;101001.38;5054228;28;20025;-69
2022/04/21 06:42:31;;;;;;;6.43;2.63;;;;;;;22.04;33.57;101009.09;5054545;28;20021;-69
2022/04/21 06:50:25;;;;;;;4.00;2.30;;;;;;;22.52;33.59;100996.38;5053768;28;20071;-69
2022/04/21 06:52:50;;;;;;;2.85;2.50;;;;;;;22.68;33.28;101000.66;5053961;28;20104;-69
2022/04/21 06:55:15;;;;;;;4.30;2.70;;;;;;;22.80;32.30;101005.34;5053943;28;20032;-69
2022/04/21 06:57:41;;;;;;;4.68;2.97;;;;;;;22.97;32.83;101005.81;5054174;28;20112;-69
2022/04/21 07:00:07;;;;;;;3.58;2.28;;;;;;;23.15;33.01;101006.06;5053860;28;20060;-69
2022/04/21 07:02:32;;;;;;;6.03;2.97;;;;;;;23.32;32.87;101007.38;5035441;28;20028;-69
2022/04/21 07:05:17;;;;;;;11.27;2.53;;;;;;;23.52;31.67;101005.53;5053964;28;20394;-69
2022/04/21 07:07:42;;;;;;;9.20;2.92;;;;;;;23.71;31.82;101009.34;5053317;28;20443;-69
2022/04/21 07:10:09;;;;;;;6.18;2.45;;;;;;;23.85;31.36;101008.28;5054299;28;20045;-69
2022/04/21 07:12:34;;;;;;;5.57;3.00;;;;;;;24.02;31.89;101011.41;5053983;28;20025;-69
2022/04/21 07:15:07;;;;;;;3.50;2.60;;;;;;;24.13;31.60;101019.88;5036012;28;20025;-69
2022/04/21 07:17:34;;;;;;;6.07;2.50;;;;;;;24.28;31.54;101008.69;5053978;28;20104;-69
2022/04/21 07:20:00;;;;;;;4.40;2.80;;;;;;;24.42;31.06;101007.59;5054035;28;20033;-69
2022/04/21 07:22:25;;;;;;;3.90;2.25;;;;;;;24.59;30.77;101014.28;5054480;28;20025;-69
2022/04/21 07:24:54;;;;;;;5.38;2.78;;;;;;;24.74;31.03;101006.63;5019422;28;20435;-69
2022/04/21 07:27:21;;;;;;;7.25;2.72;;;;;;;24.90;30.86;101005.34;5053406;28;20410;-69
2022/04/21 07:29:46;;;;;;;10.55;2.72;;;;;;;25.07;30.55;101011.16;5053746;28;20021;-69
2022/04/21 07:32:11;;;;;;;4.15;2.25;;;;;;;25.27;30.25;101011.84;5053504;28;20386;-69
2022/04/21 07:34:37;;;;;;;7.18;2.83;;;;;;;25.45;30.43;101009.22;5053613;28;20028;-69
2022/04/21 07:37:03;;;;;;;3.42;2.42;;;;;;;25.59;30.02;101010.84;5053482;28;20052;-69
2022/04/21 07:39:29;;;;;;;6.10;2.78;;;;;;;25.68;30.01;101012.25;5053277;28;20032;-69
2022/04/21 07:41:57;;;;;;;5.40;1.95;;;;;;;25.80;29.44;101010.44;5053494;28;20033;-69
2022/04/21 07:44:22;;;;;;;4.15;2.22;;;;;;;25.92;29.32;101003.16;5053338;28;20028;-69
2022/04/21 07:46:48;;;;;;;5.10;2.33;;;;;;;26.03;29.33;100996.94;5052907;28;20036;-69
2022/04/21 07:53:13;;;;;;;6.85;2.70;;;;;;;26.28;29.20;101007.91;5052877;28;20082;-69
2022/04/21 07:54:43;;;;;;;4.35;2.17;;;;;;;26.41;29.03;101006.94;5053046;28;20033;-69
2022/04/21 07:57:09;;;;;;;4.95;2.60;;;;;;;26.49;28.96;101006.63;5052833;28;20390;-69
2022/04/21 07:59:35;;;;;;;9.80;3.15;;;;;;;26.58;28.54;100999.72;5053380;28;20040;-69
2022/04/21 08:02:01;;;;;;;3.92;2.50;;;;;;;26.64;28.26;100998.81;5054149;28;20600;-69
2022/04/21 08:04:27;;;;;;;4.25;2.33;;;;;;;26.74;28.25;100996.38;5057251;28;20040;-69
2022/04/21 08:06:53;;;;;;;2.08;1.90;;;;;;;26.83;28.23;100999.69;5057093;28;20025;-69
2022/04/21 08:09:19;;;;;;;2.08;1.65;;;;;;;26.94;27.67;100999.72;5057110;28;20482;-69
2022/04/21 08:11:44;;;;;;;3.28;1.70;;;;;;;27.00;27.85;101001.53;5056821;28;20035;-69
2022/04/21 08:14:10;;;;;;;3.72;2.20;;;;;;;27.11;27.34;101003.50;5056909;28;20501;-69
2022/04/21 08:16:35;;;;;;;3.45;2.63;;;;;;;27.18;27.27;101004.25;5039074;28;20031;-68
2022/04/21 08:19:00;;;;;;;6.03;2.47;;;;;;;27.21;27.69;101002.94;5056620;28;20079;-69
2022/04/21 08:21:26;;;;;;;5.22;2.35;;;;;;;27.23;26.99;101008.22;5057063;28;20037;-68
2022/04/21 08:23:51;;;;;;;3.03;2.33;;;;;;;27.22;27.35;101006.56;5056591;28;20078;-69
2022/04/21 08:34:29;;;;;;;5.25;2.35;;;;;;;27.51;27.07;100992.78;5056623;28;20028;-69
2022/04/21 08:36:55;;;;;;;4.03;2.50;;;;;;;27.63;27.66;100992.81;5056336;28;20032;-69
2022/04/21 08:39:20;;;;;;;6.10;2.28;;;;;;;27.78;27.16;100993.16;5056265;28;20056;-68
2022/04/21 08:41:47;;;;;;;4.72;2.00;;;;;;;27.95;26.48;100988.63;5056056;28;20386;-68
2022/04/21 08:44:18;;;;;;;5.85;2.50;;;;;;;28.08;26.86;100988.44;5056082;28;20029;-68
2022/04/21 08:46:43;;;;;;;4.07;1.63;;;;;;;28.23;26.63;100983.25;5055881;28;20105;-68
2022/04/21 08:49:10;;;;;;;7.70;2.53;;;;;;;28.33;26.17;100981.81;5021854;28;20102;-68
2022/04/21 08:51:35;;;;;;;2.08;1.88;;;;;;;28.48;26.74;100973.88;5038476;28;20024;-68
2022/04/21 08:54:02;;;;;;;5.03;1.95;;;;;;;28.62;26.27;100969.75;5056625;28;20032;-68
2022/04/21 08:56:29;;;;;;;3.05;1.73;;;;;;;28.75;25.38;100969.53;5056680;28;20021;-68
2022/04/21 08:58:54;;;;;;;4.63;1.73;;;;;;;28.77;25.91;100973.72;5038637;28;20025;-68
2022/04/21 09:01:19;;;;;;;2.08;1.88;;;;;;;28.82;26.04;100970.22;5038451;28;20493;-69
2022/04/21 09:03:46;;;;;;;2.38;1.73;;;;;;;28.87;25.88;100967.53;5056157;28;20025;-69
2022/04/21 09:06:12;;;;;;;2.10;1.75;;;;;;;28.88;25.93;100964.56;5038329;28;20029;-68
2022/04/21 09:08:37;;;;;;;2.67;2.00;;;;;;;28.85;25.71;100964.19;5056098;28;20036;-69
2022/04/21 09:11:02;;;;;;;5.15;1.50;;;;;;;28.80;25.97;100969.63;5021914;28;20112;-68
2022/04/21 09:13:38;;;;;;;6.22;1.90;;;;;;;28.80;25.58;100967.72;5055608;28;20025;-68
2022/04/21 09:16:05;;;;;;;5.03;1.70;;;;;;;28.87;24.78;100967.53;5038511;28;20029;-69
2022/04/21 09:18:37;;;;;;;2.85;1.88;;;;;;;28.93;24.75;100962.97;5056029;28;20024;-69
2022/04/21 09:21:17;;;;;;;5.97;1.95;;;;;;;29.05;25.55;100958.25;5055964;28;20047;-68
2022/04/21 09:23:44;;;;;;;3.45;1.83;;;;;;;29.20;25.31;100956.59;5055670;28;20029;-69
2022/04/21 09:26:14;;;;;;;3.22;1.55;;;;;;;29.32;24.84;100953.78;5055454;28;20080;-68
2022/04/21 09:28:40;;;;;;;2.95;1.73;;;;;;;29.44;24.94;100947.13;5055589;28;20021;-69
2022/04/21 09:31:08;;;;;;;3.42;1.67;;;;;;;29.55;24.07;100950.06;5055175;28;20485;-69
2022/04/21 09:33:41;;;;;;;2.90;1.55;;;;;;;29.74;23.84;100951.47;5037382;28;20385;-69
2022/04/21 09:36:08;;;;;;;2.10;1.73;;;;;;;29.95;24.02;100953.50;5055169;28;20028;-69
2022/04/21 09:38:34;;;;;;;4.07;1.60;;;;;;;30.06;24.15;100946.19;5055028;28;20025;-69
2022/04/21 09:41:10;;;;;;;2.22;1.50;;;;;;;30.16;23.56;100936.09;5055108;28;20394;-69
2022/04/21 09:43:37;;;;;;;2.85;1.33;;;;;;;30.32;23.71;100943.50;5054908;28;20036;-68
2022/04/21 09:46:13;;;;;;;3.88;1.50;;;;;;;30.54;23.36;100929.75;5054684;28;20157;-68
2022/04/21 09:48:38;;;;;;;7.53;2.38;;;;;;;30.87;23.15;100932.34;5054570;28;20423;-69
2022/04/21 09:51:06;;;;;;;2.85;1.52;;;;;;;31.41;23.17;100935.09;5054565;28;20364;-69
2022/04/21 09:53:47;;;;;;;5.38;2.40;;;;;;;32.24;22.38;100937.97;5054681;28;20034;-69
2022/04/21 09:56:12;;;;;;;2.47;1.92;;;;;;;33.29;21.10;100920.00;5055021;28;20021;-69
2022/04/21 09:58:38;;;;;;;3.00;1.35;;;;;;;34.92;20.29;100926.84;5055071;28;20032;-69
2022/04/21 10:01:04;;;;;;;1.27;0.88;;;;;;;35.69;19.07;100939.13;5055025;28;20436;-71
2022/04/21 10:03:33;;;;;;;1.63;0.93;;;;;;;35.05;18.74;100923.41;5054319;28;20017;-69
2022/04/21 10:05:59;;;;;;;1.48;0.95;;;;;;;34.46;18.75;100917.88;5037363;28;20028;-69
2022/04/21 10:08:24;;;;;;;3.15;1.42;;;;;;;34.10;20.28;100911.59;5054368;28;20032;-71
2022/04/21 10:10:53;;;;;;;4.90;1.38;;;;;;;33.93;20.63;100920.25;5054538;28;20475;-69
2022/04/21 10:13:18;;;;;;;5.82;1.77;;;;;;;33.85;19.79;100923.59;5054278;28;20390;-69
2022/04/21 10:15:44;;;;;;;3.60;1.77;;;;;;;33.80;20.57;100908.88;5054197;28;20043;-68
2022/04/21 10:18:12;;;;;;;2.63;1.60;;;;;;;33.73;20.17;100909.16;5054165;28;20024;-69
2022/04/21 10:20:39;;;;;;;1.80;1.35;;;;;;;33.75;20.23;100906.13;5036174;28;20033;-69
2022/04/21 10:23:10;;;;;;;12.48;1.70;;;;;;;33.75;19.64;100890.25;5053858;28;20033;-69
2022/04/21 10:25:37;;;;;;;6.45;1.95;;;;;;;33.82;20.51;100898.31;5036536;28;20394;-68
2022/04/21 10:28:38;;;;;;;4.75;1.67;;;;;;;33.97;19.88;100885.22;5054194;28;20108;-68
2022/04/21 10:31:33;;;;;;;2.67;1.40;;;;;;;34.01;20.08;100898.53;5054578;28;20021;-69
2022/04/21 10:34:04;;;;;;;2.45;1.38;;;;;;;33.90;19.32;100892.16;5054968;28;20025;-69
2022/04/21 10:36:46;;;;;;;3.30;1.58;;;;;;;34.13;19.64;100893.53;5036414;28;20025;-69
2022/04/21 10:39:27;;;;;;;2.30;1.48;;;;;;;34.28;19.35;100887.91;5036803;28;20021;-69
2022/04/21 10:42:14;;;;;;;4.65;2.22;;;;;;;34.46;18.54;100887.25;5036515;28;20020;-69
2022/04/21 10:44:42;;;;;;;7.72;2.50;;;;;;;34.63;18.83;100884.97;5053870;28;20029;-68
2022/04/21 10:47:26;;;;;;;4.65;2.05;;;;;;;34.92;18.98;100880.34;5053976;28;20433;-68
2022/04/21 10:50:14;;;;;;;3.88;2.13;;;;;;;35.14;18.58;100874.34;5053807;28;20039;-68
2022/04/21 10:57:51;;;;;;;2.35;1.95;;;;;;;35.68;17.89;100868.56;5053492;28;20035;-70
2022/04/21 11:00:26;;;;;;;2.65;1.40;;;;;;;35.90;17.63;100857.75;5053827;28;20108;-69
2022/04/21 11:03:25;;;;;;;1.98;1.45;;;;;;;36.13;17.87;100859.72;5053644;28;20036;-69
2022/04/21 11:06:04;;;;;;;11.32;1.90;;;;;;;36.32;18.15;100850.56;5053597;28;20016;-69
2022/04/21 11:08:30;;;;;;;3.80;1.80;;;;;;;36.53;17.67;100847.22;5053794;28;20032;-69
2022/04/21 11:10:56;;;;;;;3.88;1.58;;;;;;;36.70;17.78;100841.94;5054113;28;20020;-69
2022/04/21 11:13:38;;;;;;;1.45;1.23;;;;;;;36.86;17.23;100834.16;5054299;28;20017;-69
2022/04/21 11:16:04;;;;;;;4.65;1.95;;;;;;;36.92;17.55;100838.53;5053988;28;20028;-70
2022/04/21 11:18:30;;;;;;;4.45;2.17;;;;;;;36.96;17.45;100839.63;5053761;28;20025;-69
2022/04/21 11:21:26;;;;;;;3.88;1.85;;;;;;;37.03;17.19;100840.03;5053524;28;20040;-69
2022/04/21 11:23:51;;;;;;;5.15;2.25;;;;;;;37.00;17.39;100804.34;5053484;28;20057;-70
2022/04/21 11:26:17;;;;;;;4.72;2.08;;;;;;;36.98;17.48;100830.91;5053211;28;20103;-69
2022/04/21 11:28:46;;;;;;;3.65;2.00;;;;;;;36.98;17.11;100834.53;5053436;28;20029;-69
2022/04/21 11:31:13;;;;;;;5.43;2.15;;;;;;;37.01;16.85;100833.94;5053353;28;20554;-69
2022/04/21 11:33:44;;;;;;;3.53;1.58;;;;;;;37.05;16.76;100832.19;5053412;28;20025;-70
2022/04/21 11:36:11;;;;;;;2.30;1.70;;;;;;;37.12;16.95;100820.63;5052932;28;20020;-69
2022/04/21 11:38:41;;;;;;;3.95;1.73;;;;;;;37.15;16.90;100818.06;5056212;28;20033;-69
2022/04/21 11:41:08;;;;;;;1.25;1.15;;;;;;;37.19;16.72;100807.91;5057218;28;20025;-69
2022/04/21 11:43:35;;;;;;;3.42;1.50;;;;;;;37.22;16.78;100807.28;5057169;28;20029;-70
2022/04/21 11:46:03;;;;;;;6.70;1.58;;;;;;;37.24;16.53;100807.81;5057349;28;20079;-69
2022/04/21 11:48:30;;;;;;;5.18;1.40;;;;;;;37.36;16.52;100795.34;5057392;28;20060;-69
2022/04/21 11:50:55;;;;;;;2.45;1.40;;;;;;;37.42;16.46;100808.91;5057094;28;20025;-69
2022/04/21 11:53:21;;;;;;;1.70;1.23;;;;;;;37.44;16.45;100812.22;5057432;28;20464;-69
2022/04/21 11:55:47;;;;;;;1.27;1.17;;;;;;;37.32;16.07;100803.50;5057260;28;20025;-70
2022/04/21 11:58:25;;;;;;;1.75;1.23;;;;;;;37.24;16.06;100802.22;5057087;28;20523;-69
2022/04/21 12:06:28;;;;;;;3.33;1.30;;;;;;;37.00;16.38;100790.34;5057115;28;20071;-68
2022/04/21 12:08:53;;;;;;;1.30;1.20;;;;;;;36.97;15.95;100778.97;5057301;28;20382;-70
2022/04/21 12:11:19;;;;;;;3.00;1.00;;;;;;;36.90;16.61;100784.94;5038965;28;20025;-69
2022/04/21 12:13:47;;;;;;;2.00;1.27;;;;;;;36.86;16.50;100783.88;5056664;28;20021;-70
2022/04/21 12:16:36;;;;;;;4.85;1.45;;;;;;;36.82;16.62;100782.00;5056541;28;20025;-69